Time;durP1;ratioP1;P1;durP2;ratioP2;P2;SDS_P1;SDS_P2;PMS_P1;PMS_P2;Temp;Humidity;BMP_temperature;BMP_pressure;BME280_temperature;BME280_humidity;BME280_pressure;Samples;Min_cycle;Max_cycle;Signal;HPM_P1;HPM_P2
2021/09/19 00:00:08;;;;;;;5.72;4.38;;;;;;;;;;5004405;28;20214;-82
2021/09/19 00:02:34;;;;;;;5.78;4.53;;;;;;;;;;4995390;28;20471;-82
2021/09/19 00:05:00;;;;;;;6.50;4.65;;;;;;;;;;5002086;28;20190;-84
2021/09/19 00:07:26;;;;;;;5.33;4.83;;;;;;;;;;5001131;28;20187;-81
2021/09/19 00:09:52;;;;;;;5.23;4.27;;;;;;;;;;5018573;28;20436;-82
2021/09/19 00:12:18;;;;;;;4.43;3.97;;;;;;;;;;5005716;28;20444;-81
2021/09/19 00:14:44;;;;;;;4.70;4.20;;;;;;;;;;5001936;28;20779;-82
2021/09/19 00:17:10;;;;;;;4.28;3.88;;;;;;;;;;5001657;28;20458;-82
2021/09/19 00:19:36;;;;;;;5.20;4.70;;;;;;;;;;5002135;28;20277;-82
2021/09/19 00:22:02;;;;;;;7.47;4.00;;;;;;;;;;5000046;28;20696;-82
2021/09/19 00:24:28;;;;;;;6.15;4.80;;;;;;;;;;5004103;28;20418;-82
2021/09/19 00:26:54;;;;;;;5.80;4.13;;;;;;;;;;5001887;28;20649;-82
2021/09/19 00:29:21;;;;;;;4.80;4.27;;;;;;;;;;5003678;28;20198;-82
2021/09/19 00:31:47;;;;;;;5.28;4.78;;;;;;;;;;4997092;28;20983;-82
2021/09/19 00:34:12;;;;;;;6.28;4.97;;;;;;;;;;4999708;28;20434;-82
2021/09/19 00:36:38;;;;;;;7.93;4.90;;;;;;;;;;5002394;28;20190;-82
2021/09/19 00:39:04;;;;;;;5.30;4.40;;;;;;;;;;5003735;28;20422;-82
2021/09/19 00:41:30;;;;;;;5.97;5.40;;;;;;;;;;4994561;28;20485;-81
2021/09/19 00:43:56;;;;;;;6.07;5.17;;;;;;;;;;5000274;28;20982;-82
2021/09/19 00:46:22;;;;;;;5.83;4.87;;;;;;;;;;5002466;28;20550;-82
2021/09/19 00:48:48;;;;;;;7.63;5.30;;;;;;;;;;5002042;28;20435;-81
2021/09/19 00:51:14;;;;;;;6.37;4.97;;;;;;;;;;5004340;28;20853;-81
2021/09/19 00:53:41;;;;;;;7.70;5.00;;;;;;;;;;4994477;28;20443;-81
2021/09/19 00:56:07;;;;;;;5.32;4.75;;;;;;;;;;5001093;28;20255;-81
2021/09/19 00:58:34;;;;;;;5.20;4.70;;;;;;;;;;4998732;28;20258;-81
2021/09/19 01:01:00;;;;;;;5.13;4.70;;;;;;;;;;4997352;28;20238;-82
2021/09/19 01:03:26;;;;;;;5.88;4.97;;;;;;;;;;5002826;28;20203;-81
2021/09/19 01:05:53;;;;;;;5.40;4.90;;;;;;;;;;5003877;28;20587;-81
2021/09/19 01:08:19;;;;;;;5.50;4.85;;;;;;;;;;5000807;28;20190;-82
2021/09/19 01:10:46;;;;;;;5.60;4.82;;;;;;;;;;5000750;28;20643;-81
2021/09/19 01:13:12;;;;;;;7.60;5.45;;;;;;;;;;5002099;28;20187;-80
2021/09/19 01:15:39;;;;;;;5.85;4.80;;;;;;;;;;5002743;28;20175;-82
2021/09/19 01:18:06;;;;;;;5.65;4.80;;;;;;;;;;5003128;28;20179;-80
2021/09/19 01:20:33;;;;;;;7.30;5.68;;;;;;;;;;4993677;28;20182;-82
2021/09/19 01:23:02;;;;;;;5.88;5.38;;;;;;;;;;5000995;28;20209;-81
2021/09/19 01:25:28;;;;;;;5.70;5.07;;;;;;;;;;4990689;28;20202;-81
2021/09/19 01:27:54;;;;;;;6.95;5.50;;;;;;;;;;5015983;28;20202;-81
2021/09/19 01:30:20;;;;;;;6.45;5.53;;;;;;;;;;5003541;28;20179;-80
2021/09/19 01:32:46;;;;;;;6.75;5.05;;;;;;;;;;5001179;28;20179;-81
2021/09/19 01:35:12;;;;;;;7.30;5.40;;;;;;;;;;5014411;28;20191;-81
2021/09/19 01:37:39;;;;;;;6.72;5.22;;;;;;;;;;5000281;28;20493;-81
2021/09/19 01:40:05;;;;;;;6.63;4.75;;;;;;;;;;5000155;28;20186;-81
2021/09/19 01:42:31;;;;;;;6.18;5.57;;;;;;;;;;5002006;28;20194;-81
2021/09/19 01:44:57;;;;;;;6.43;5.05;;;;;;;;;;5001757;28;20731;-81
2021/09/19 01:47:23;;;;;;;6.43;4.70;;;;;;;;;;4999875;28;20187;-81
2021/09/19 01:49:50;;;;;;;5.10;4.70;;;;;;;;;;5000128;28;20179;-81
2021/09/19 01:52:16;;;;;;;6.10;4.25;;;;;;;;;;4999788;28;20191;-81
2021/09/19 01:54:42;;;;;;;7.72;5.40;;;;;;;;;;5001485;28;20553;-81
2021/09/19 01:57:08;;;;;;;6.45;4.50;;;;;;;;;;5003678;28;20648;-81
2021/09/19 01:59:35;;;;;;;5.70;5.07;;;;;;;;;;4993203;28;20210;-81
2021/09/19 02:02:01;;;;;;;7.00;4.50;;;;;;;;;;5000184;28;20524;-82
2021/09/19 02:04:27;;;;;;;6.07;5.15;;;;;;;;;;4995174;28;20606;-81
2021/09/19 02:06:53;;;;;;;6.28;5.70;;;;;;;;;;4999099;28;20247;-82
2021/09/19 02:09:19;;;;;;;5.63;5.13;;;;;;;;;;5019112;28;20628;-81
2021/09/19 02:11:45;;;;;;;5.85;5.13;;;;;;;;;;5001432;28;20437;-81
2021/09/19 02:14:11;;;;;;;6.03;4.70;;;;;;;;;;4993567;28;20187;-80
2021/09/19 02:16:37;;;;;;;10.70;5.40;;;;;;;;;;5000709;28;20435;-81
2021/09/19 02:19:03;;;;;;;5.32;4.80;;;;;;;;;;5000637;28;20494;-81
2021/09/19 02:21:29;;;;;;;5.83;4.80;;;;;;;;;;5017322;28;20179;-80
2021/09/19 02:23:55;;;;;;;5.67;4.90;;;;;;;;;;5002011;28;20430;-81
2021/09/19 02:26:21;;;;;;;4.87;4.47;;;;;;;;;;5000241;28;20446;-80
2021/09/19 02:28:47;;;;;;;6.40;5.50;;;;;;;;;;5000605;28;20469;-81
2021/09/19 02:31:13;;;;;;;8.52;5.88;;;;;;;;;;5014588;28;20813;-81
2021/09/19 02:33:39;;;;;;;5.63;5.10;;;;;;;;;;5017454;28;20206;-81
2021/09/19 02:36:05;;;;;;;5.90;5.30;;;;;;;;;;4992681;28;20176;-81
2021/09/19 02:38:31;;;;;;;9.10;6.10;;;;;;;;;;4995891;28;20441;-81
2021/09/19 02:40:57;;;;;;;7.67;6.50;;;;;;;;;;4999980;28;20191;-80
2021/09/19 02:43:23;;;;;;;7.20;6.50;;;;;;;;;;5014449;28;20470;-80
2021/09/19 02:45:50;;;;;;;5.78;5.22;;;;;;;;;;4996909;28;20219;-80
2021/09/19 02:48:16;;;;;;;7.43;6.15;;;;;;;;;;5007638;28;20190;-82
2021/09/19 02:50:42;;;;;;;5.65;4.95;;;;;;;;;;5003019;28;20190;-80
2021/09/19 02:53:08;;;;;;;7.72;5.45;;;;;;;;;;5004235;28;20553;-81
2021/09/19 02:55:34;;;;;;;9.87;5.77;;;;;;;;;;5018958;28;20254;-80
2021/09/19 02:58:00;;;;;;;7.13;5.78;;;;;;;;;;5019046;28;20462;-81
2021/09/19 03:00:26;;;;;;;6.17;5.57;;;;;;;;;;5006273;28;20688;-79
2021/09/19 03:02:52;;;;;;;7.70;6.20;;;;;;;;;;5002007;28;20465;-81
2021/09/19 03:05:18;;;;;;;8.30;7.10;;;;;;;;;;5003468;28;20497;-81
2021/09/19 03:07:45;;;;;;;7.70;6.38;;;;;;;;;;5002035;28;20179;-81
2021/09/19 03:10:11;;;;;;;6.32;5.72;;;;;;;;;;5002933;28;20193;-81
2021/09/19 03:12:38;;;;;;;6.32;5.72;;;;;;;;;;5004714;28;20723;-81
2021/09/19 03:15:04;;;;;;;8.05;6.50;;;;;;;;;;5005315;28;20229;-80
2021/09/19 03:17:30;;;;;;;7.43;6.70;;;;;;;;;;5001445;28;20187;-81
2021/09/19 03:19:56;;;;;;;7.97;6.27;;;;;;;;;;4997360;28;20215;-80
2021/09/19 03:22:22;;;;;;;10.43;6.23;;;;;;;;;;5017797;28;20462;-80
2021/09/19 03:24:48;;;;;;;11.50;7.20;;;;;;;;;;5002659;28;20430;-81
2021/09/19 03:27:14;;;;;;;7.37;6.67;;;;;;;;;;5006840;28;20549;-80
2021/09/19 03:29:40;;;;;;;7.80;7.00;;;;;;;;;;5017670;28;20488;-81
2021/09/19 03:32:06;;;;;;;8.60;6.78;;;;;;;;;;5017996;28;20183;-80
2021/09/19 03:34:35;;;;;;;8.80;7.40;;;;;;;;;;5003233;28;20206;-80
2021/09/19 03:37:02;;;;;;;8.82;7.95;;;;;;;;;;5004688;28;20187;-80
2021/09/19 03:39:28;;;;;;;9.50;7.10;;;;;;;;;;5020553;28;20175;-80
2021/09/19 03:41:54;;;;;;;8.00;6.77;;;;;;;;;;5011059;28;20241;-80
2021/09/19 03:44:20;;;;;;;9.23;7.57;;;;;;;;;;5005283;28;20552;-80
2021/09/19 03:46:46;;;;;;;8.43;7.60;;;;;;;;;;5003236;28;20442;-80
2021/09/19 03:49:12;;;;;;;8.43;7.22;;;;;;;;;;5002948;28;20189;-80
2021/09/19 03:51:38;;;;;;;9.70;7.63;;;;;;;;;;5003995;28;20175;-81
2021/09/19 03:54:04;;;;;;;8.07;7.25;;;;;;;;;;5005168;28;20608;-80
2021/09/19 03:56:30;;;;;;;8.65;7.03;;;;;;;;;;5002315;28;20175;-80
2021/09/19 03:58:56;;;;;;;9.13;8.13;;;;;;;;;;5001970;28;20251;-81
2021/09/19 04:01:23;;;;;;;8.13;7.32;;;;;;;;;;5017742;28;20492;-80
2021/09/19 04:03:49;;;;;;;9.23;8.25;;;;;;;;;;5014387;28;20231;-81
2021/09/19 04:06:15;;;;;;;8.95;8.00;;;;;;;;;;5006078;28;20179;-80
2021/09/19 04:08:41;;;;;;;8.50;7.20;;;;;;;;;;5002321;28;20187;-80
2021/09/19 04:11:07;;;;;;;9.02;8.13;;;;;;;;;;5002484;28;20445;-80
2021/09/19 04:13:33;;;;;;;8.43;7.63;;;;;;;;;;5001667;28;20179;-80
2021/09/19 04:16:00;;;;;;;10.53;8.00;;;;;;;;;;5002171;28;20186;-81
2021/09/19 04:18:26;;;;;;;10.52;9.15;;;;;;;;;;5005123;28;20415;-80
2021/09/19 04:20:52;;;;;;;9.85;8.85;;;;;;;;;;5000024;28;20209;-80
2021/09/19 04:23:18;;;;;;;10.63;8.80;;;;;;;;;;4995470;28;20222;-81
2021/09/19 04:25:44;;;;;;;11.03;8.60;;;;;;;;;;5002522;28;20442;-80
2021/09/19 04:28:11;;;;;;;9.68;8.65;;;;;;;;;;5003160;28;20521;-81
2021/09/19 04:30:37;;;;;;;9.80;8.07;;;;;;;;;;5003378;28;20167;-80
2021/09/19 04:33:02;;;;;;;8.77;7.97;;;;;;;;;;5004244;28;20179;-81
2021/09/19 04:35:28;;;;;;;9.03;8.13;;;;;;;;;;5001704;28;20243;-81
2021/09/19 04:37:54;;;;;;;9.05;8.15;;;;;;;;;;4996263;28;20454;-80
2021/09/19 04:40:21;;;;;;;11.27;9.55;;;;;;;;;;5001366;28;20222;-80
2021/09/19 04:42:47;;;;;;;9.88;8.90;;;;;;;;;;5002513;28;20207;-81
2021/09/19 04:45:13;;;;;;;9.20;7.97;;;;;;;;;;5008102;28;20309;-81
2021/09/19 04:47:39;;;;;;;12.35;8.57;;;;;;;;;;5002530;28;20434;-81
2021/09/19 04:50:06;;;;;;;9.80;8.80;;;;;;;;;;5001744;28;20206;-80
2021/09/19 04:52:32;;;;;;;11.00;8.75;;;;;;;;;;5001237;28;20241;-80
2021/09/19 04:54:58;;;;;;;8.93;8.02;;;;;;;;;;5016696;28;20223;-81
2021/09/19 04:57:24;;;;;;;9.48;8.35;;;;;;;;;;5003970;28;20242;-81
2021/09/19 04:59:50;;;;;;;10.10;9.10;;;;;;;;;;5002877;28;20195;-81
2021/09/19 05:02:16;;;;;;;10.90;8.77;;;;;;;;;;4994382;28;20204;-81
2021/09/19 05:04:42;;;;;;;11.57;8.90;;;;;;;;;;5001308;28;20444;-81
2021/09/19 05:07:08;;;;;;;9.00;8.00;;;;;;;;;;5016502;28;20451;-81
2021/09/19 05:09:34;;;;;;;9.75;7.72;;;;;;;;;;5003837;28;20415;-80
2021/09/19 05:12:00;;;;;;;8.60;7.73;;;;;;;;;;4995741;28;20244;-81
2021/09/19 05:14:26;;;;;;;10.43;8.63;;;;;;;;;;5000995;28;20469;-81
2021/09/19 05:16:52;;;;;;;8.50;7.03;;;;;;;;;;4996025;28;20450;-81
2021/09/19 05:19:18;;;;;;;7.40;6.67;;;;;;;;;;5000547;28;20444;-81
2021/09/19 05:21:44;;;;;;;9.63;7.87;;;;;;;;;;5016579;28;20443;-80
2021/09/19 05:24:10;;;;;;;9.57;7.40;;;;;;;;;;4997582;28;20430;-81
2021/09/19 05:26:36;;;;;;;8.63;7.80;;;;;;;;;;5001024;28;20501;-81
2021/09/19 05:29:02;;;;;;;8.40;7.47;;;;;;;;;;5001136;28;20183;-81
2021/09/19 05:31:30;;;;;;;9.23;7.65;;;;;;;;;;4999711;28;20250;-81
2021/09/19 05:33:56;;;;;;;8.05;7.25;;;;;;;;;;4997134;28;20251;-80
2021/09/19 05:36:22;;;;;;;7.70;7.00;;;;;;;;;;5004012;28;20190;-80
2021/09/19 05:38:48;;;;;;;8.00;7.30;;;;;;;;;;4997440;28;20179;-81
2021/09/19 05:41:14;;;;;;;9.07;6.70;;;;;;;;;;5001578;28;20457;-80
2021/09/19 05:43:40;;;;;;;7.80;6.87;;;;;;;;;;4996801;28;20523;-80
2021/09/19 05:46:06;;;;;;;8.73;7.57;;;;;;;;;;4999401;28;20443;-81
2021/09/19 05:48:32;;;;;;;9.75;7.68;;;;;;;;;;5003223;28;20197;-80
2021/09/19 05:50:58;;;;;;;7.63;6.83;;;;;;;;;;5008699;28;20679;-80
2021/09/19 05:53:24;;;;;;;7.85;7.05;;;;;;;;;;5003480;28;20434;-80
2021/09/19 05:55:50;;;;;;;8.03;7.20;;;;;;;;;;5000716;28;20187;-80
2021/09/19 05:58:16;;;;;;;8.18;6.47;;;;;;;;;;5000648;28;20445;-80
2021/09/19 06:00:42;;;;;;;8.80;6.20;;;;;;;;;;5006395;28;20197;-80
2021/09/19 06:03:08;;;;;;;7.70;6.97;;;;;;;;;;5003017;28;20202;-81
2021/09/19 06:05:34;;;;;;;7.38;6.68;;;;;;;;;;5002219;28;20179;-80
2021/09/19 06:08:00;;;;;;;7.27;6.57;;;;;;;;;;4993613;28;20203;-80
2021/09/19 06:10:26;;;;;;;6.97;6.30;;;;;;;;;;5014982;28;20435;-80
2021/09/19 06:12:52;;;;;;;6.47;5.87;;;;;;;;;;5009725;28;20498;-80
2021/09/19 06:15:18;;;;;;;6.83;6.13;;;;;;;;;;5019717;28;20804;-80
2021/09/19 06:17:44;;;;;;;6.37;5.67;;;;;;;;;;4993755;28;20505;-80
2021/09/19 06:20:10;;;;;;;6.97;6.20;;;;;;;;;;5000802;28;20449;-81
2021/09/19 06:22:36;;;;;;;7.45;6.38;;;;;;;;;;5018353;28;20472;-80
2021/09/19 06:25:02;;;;;;;7.45;6.75;;;;;;;;;;5020194;28;20227;-80
2021/09/19 06:27:28;;;;;;;7.88;6.70;;;;;;;;;;5007053;28;20171;-79
2021/09/19 06:29:54;;;;;;;8.80;6.60;;;;;;;;;;5007105;28;20175;-80
2021/09/19 06:32:20;;;;;;;5.70;5.17;;;;;;;;;;4997044;28;20447;-80
2021/09/19 06:34:46;;;;;;;7.43;5.93;;;;;;;;;;5006706;28;20442;-79
2021/09/19 06:37:12;;;;;;;6.45;5.85;;;;;;;;;;5016811;28;20547;-80
2021/09/19 06:39:38;;;;;;;6.65;5.95;;;;;;;;;;5021018;28;20603;-80
2021/09/19 06:42:04;;;;;;;7.30;6.60;;;;;;;;;;5007300;28;20230;-81
2021/09/19 06:44:30;;;;;;;6.05;5.50;;;;;;;;;;5000566;28;20489;-79
2021/09/19 06:46:56;;;;;;;6.90;6.20;;;;;;;;;;5003261;28;20214;-80
2021/09/19 06:49:23;;;;;;;8.93;6.30;;;;;;;;;;5004597;28;20529;-80
2021/09/19 06:51:49;;;;;;;6.57;5.97;;;;;;;;;;5005077;28;20187;-79
2021/09/19 06:54:15;;;;;;;7.03;6.30;;;;;;;;;;5007160;28;20187;-79
2021/09/19 06:56:41;;;;;;;7.20;6.50;;;;;;;;;;5020124;28;20179;-80
2021/09/19 06:59:07;;;;;;;7.18;6.55;;;;;;;;;;5019868;28;20434;-79
2021/09/19 07:01:33;;;;;;;6.40;5.80;;;;;;;;;;5005164;28;20191;-80
2021/09/19 07:03:59;;;;;;;6.60;5.90;;;;;;;;;;5003238;28;20466;-80
2021/09/19 07:06:25;;;;;;;6.20;5.60;;;;;;;;;;5005391;28;20194;-79
2021/09/19 07:08:51;;;;;;;7.47;6.00;;;;;;;;;;5002112;28;20437;-80
2021/09/19 07:11:17;;;;;;;6.65;5.95;;;;;;;;;;5005199;28;20453;-80
2021/09/19 07:13:43;;;;;;;7.10;6.07;;;;;;;;;;5002684;28;20195;-80
2021/09/19 07:16:09;;;;;;;6.60;6.00;;;;;;;;;;5019030;28;20511;-80
2021/09/19 07:18:35;;;;;;;6.60;6.00;;;;;;;;;;5005173;28;20497;-79
2021/09/19 07:21:01;;;;;;;7.50;6.80;;;;;;;;;;5004380;28;20426;-80
2021/09/19 07:23:27;;;;;;;7.85;6.47;;;;;;;;;;5003349;28;20199;-80
2021/09/19 07:25:53;;;;;;;7.10;6.00;;;;;;;;;;5004840;28;20254;-80
2021/09/19 07:28:19;;;;;;;7.63;6.25;;;;;;;;;;5005569;28;20190;-80
2021/09/19 07:30:45;;;;;;;6.90;5.38;;;;;;;;;;5005009;28;20245;-80
2021/09/19 07:33:12;;;;;;;6.10;5.47;;;;;;;;;;5004466;28;20210;-80
2021/09/19 07:35:38;;;;;;;7.60;6.43;;;;;;;;;;5003970;28;20670;-80
2021/09/19 07:38:04;;;;;;;7.00;6.18;;;;;;;;;;5002504;28;20190;-79
2021/09/19 07:40:30;;;;;;;8.32;6.05;;;;;;;;;;5000619;28;20178;-81
2021/09/19 07:42:59;;;;;;;8.40;6.22;;;;;;;;;;4999127;28;20208;-81
2021/09/19 07:45:25;;;;;;;7.60;6.15;;;;;;;;;;5004948;28;20219;-79
2021/09/19 07:47:52;;;;;;;7.47;6.25;;;;;;;;;;5003236;28;20171;-79
2021/09/19 07:50:18;;;;;;;6.20;5.60;;;;;;;;;;5003236;28;20233;-79
2021/09/19 07:52:44;;;;;;;6.13;5.53;;;;;;;;;;4997534;28;20200;-80
2021/09/19 07:55:17;;;;;;;5.95;5.45;;;;;;;;;;5015124;28;20214;-80
2021/09/19 07:57:43;;;;;;;7.30;5.55;;;;;;;;;;5002728;28;20270;-79
2021/09/19 08:00:09;;;;;;;7.38;6.22;;;;;;;;;;5005207;28;20247;-81
2021/09/19 08:02:36;;;;;;;5.57;5.07;;;;;;;;;;5002498;28;20551;-80
2021/09/19 08:05:02;;;;;;;6.93;6.22;;;;;;;;;;5000752;28;20258;-80
2021/09/19 08:07:28;;;;;;;6.85;6.15;;;;;;;;;;5003353;28;20187;-79
2021/09/19 08:09:54;;;;;;;6.10;5.47;;;;;;;;;;5004356;28;20758;-79
2021/09/19 08:12:20;;;;;;;7.55;5.70;;;;;;;;;;5005513;28;20408;-79
2021/09/19 08:14:46;;;;;;;6.13;5.53;;;;;;;;;;5002328;28;20183;-80
2021/09/19 08:17:12;;;;;;;7.10;6.50;;;;;;;;;;5002508;28;20416;-80
2021/09/19 08:19:38;;;;;;;7.47;6.30;;;;;;;;;;5003669;28;20431;-80
2021/09/19 08:22:04;;;;;;;7.43;6.63;;;;;;;;;;5000765;28;20235;-79
2021/09/19 08:24:30;;;;;;;7.00;6.30;;;;;;;;;;5016818;28;20422;-79
2021/09/19 08:26:56;;;;;;;7.20;6.50;;;;;;;;;;5008658;28;20444;-80
2021/09/19 08:29:22;;;;;;;6.10;5.60;;;;;;;;;;5004931;28;20430;-79
2021/09/19 08:31:49;;;;;;;7.00;5.35;;;;;;;;;;5002187;28;20188;-82
2021/09/19 08:34:15;;;;;;;6.95;6.20;;;;;;;;;;5001944;28;20274;-80
2021/09/19 08:36:41;;;;;;;7.85;6.38;;;;;;;;;;5003118;28;20200;-79
2021/09/19 08:39:08;;;;;;;6.80;6.20;;;;;;;;;;4998827;28;20187;-81
2021/09/19 08:41:34;;;;;;;6.85;6.25;;;;;;;;;;5001060;28;20431;-79
2021/09/19 08:44:00;;;;;;;5.88;5.38;;;;;;;;;;4994290;28;20319;-80
2021/09/19 08:46:26;;;;;;;5.88;5.28;;;;;;;;;;5016416;28;20247;-80
2021/09/19 08:48:52;;;;;;;5.90;5.25;;;;;;;;;;5011519;28;20186;-80
2021/09/19 08:51:19;;;;;;;6.50;5.70;;;;;;;;;;5005654;28;20682;-80
2021/09/19 08:53:45;;;;;;;6.95;6.10;;;;;;;;;;4994741;28;20192;-80
2021/09/19 08:56:11;;;;;;;8.38;5.70;;;;;;;;;;4998477;28;20260;-83
2021/09/19 08:58:37;;;;;;;6.20;5.70;;;;;;;;;;5009146;28;20188;-80
2021/09/19 09:01:04;;;;;;;8.10;7.30;;;;;;;;;;5016611;28;20226;-83
2021/09/19 09:03:31;;;;;;;6.03;5.50;;;;;;;;;;5003470;28;20573;-81
2021/09/19 09:05:58;;;;;;;6.25;5.65;;;;;;;;;;5002522;28;20168;-80
2021/09/19 09:08:25;;;;;;;7.03;6.30;;;;;;;;;;5001661;28;20688;-80
2021/09/19 09:10:52;;;;;;;8.23;6.70;;;;;;;;;;5016744;28;20187;-82
2021/09/19 09:13:20;;;;;;;8.85;7.53;;;;;;;;;;5015187;28;20188;-81
2021/09/19 09:15:51;;;;;;;6.78;6.13;;;;;;;;;;4997061;28;20244;-80
2021/09/19 09:18:31;;;;;;;7.13;5.30;;;;;;;;;;4999302;28;20183;-80
2021/09/19 09:21:01;;;;;;;5.65;5.15;;;;;;;;;;5004672;28;20201;-79
2021/09/19 09:23:39;;;;;;;7.13;5.70;;;;;;;;;;5003026;28;20215;-81
2021/09/19 09:26:30;;;;;;;12.57;6.10;;;;;;;;;;5001171;28;20736;-82
2021/09/19 09:29:06;;;;;;;6.90;6.20;;;;;;;;;;4994171;28;20196;-81
2021/09/19 09:31:35;;;;;;;6.10;5.50;;;;;;;;;;4991073;28;20179;-81
2021/09/19 09:34:02;;;;;;;8.15;5.72;;;;;;;;;;5000484;28;20186;-81
2021/09/19 09:36:35;;;;;;;5.38;4.88;;;;;;;;;;5018289;28;20188;-81
2021/09/19 09:39:01;;;;;;;5.88;5.20;;;;;;;;;;5002575;28;20227;-81
2021/09/19 09:41:40;;;;;;;6.18;5.57;;;;;;;;;;5000812;28;20248;-81
2021/09/19 09:44:25;;;;;;;9.60;5.57;;;;;;;;;;5000062;28;20227;-81
2021/09/19 09:46:51;;;;;;;6.13;5.60;;;;;;;;;;5000498;28;20187;-82
2021/09/19 09:49:21;;;;;;;6.07;5.57;;;;;;;;;;5000820;28;20208;-80
2021/09/19 09:51:48;;;;;;;6.25;5.65;;;;;;;;;;5001170;28;20620;-81
2021/09/19 09:54:15;;;;;;;6.15;5.65;;;;;;;;;;5003539;28;20318;-81
2021/09/19 09:56:43;;;;;;;5.93;5.43;;;;;;;;;;5015462;28;20180;-81
2021/09/19 09:59:10;;;;;;;6.25;5.75;;;;;;;;;;5000653;28;20174;-81
2021/09/19 10:01:37;;;;;;;6.25;5.75;;;;;;;;;;4996859;28;20224;-81
2021/09/19 10:04:04;;;;;;;6.28;5.72;;;;;;;;;;5012121;28;20288;-82
2021/09/19 10:06:30;;;;;;;6.07;5.57;;;;;;;;;;5003056;28;20181;-80
2021/09/19 10:08:56;;;;;;;5.85;5.28;;;;;;;;;;4999173;28;20169;-81
2021/09/19 10:11:23;;;;;;;7.60;5.70;;;;;;;;;;4994225;28;20217;-82
2021/09/19 10:13:50;;;;;;;6.50;5.80;;;;;;;;;;4999771;28;20193;-81
2021/09/19 10:16:17;;;;;;;6.88;5.32;;;;;;;;;;5000269;28;20208;-81
2021/09/19 10:18:47;;;;;;;7.32;5.15;;;;;;;;;;5001805;28;20215;-81
2021/09/19 10:21:14;;;;;;;6.05;5.45;;;;;;;;;;4997226;28;20181;-84
2021/09/19 10:23:41;;;;;;;6.43;5.93;;;;;;;;;;5009803;28;20293;-81
2021/09/19 10:26:08;;;;;;;9.45;5.03;;;;;;;;;;5000469;28;20186;-81
2021/09/19 10:28:34;;;;;;;5.95;5.30;;;;;;;;;;5000426;28;20232;-81
2021/09/19 10:31:13;;;;;;;6.53;5.90;;;;;;;;;;5000091;28;20187;-84
2021/09/19 10:33:39;;;;;;;6.30;5.40;;;;;;;;;;5001829;28;20194;-81
2021/09/19 10:36:24;;;;;;;7.93;6.00;;;;;;;;;;5002621;28;20171;-81
2021/09/19 10:38:50;;;;;;;5.53;4.97;;;;;;;;;;5001366;28;20395;-82
2021/09/19 10:41:17;;;;;;;5.75;5.25;;;;;;;;;;5000332;28;20187;-81
2021/09/19 10:43:49;;;;;;;5.25;4.75;;;;;;;;;;4998010;28;20200;-83
2021/09/19 10:46:34;;;;;;;8.00;7.20;;;;;;;;;;5016243;28;20191;-81
2021/09/19 10:49:09;;;;;;;7.20;6.00;;;;;;;;;;5002256;28;20434;-80
2021/09/19 10:51:55;;;;;;;5.30;4.80;;;;;;;;;;5015189;28;20434;-81
2021/09/19 10:54:40;;;;;;;6.33;5.73;;;;;;;;;;5002774;28;20385;-81
2021/09/19 10:57:14;;;;;;;5.53;5.07;;;;;;;;;;5002265;28;20487;-80
2021/09/19 10:59:58;;;;;;;7.93;5.20;;;;;;;;;;4992999;28;20460;-81
2021/09/19 11:02:31;;;;;;;8.37;5.40;;;;;;;;;;4999483;28;20548;-81
2021/09/19 11:05:15;;;;;;;7.40;5.70;;;;;;;;;;5001623;28;20428;-81
2021/09/19 11:07:41;;;;;;;7.03;4.60;;;;;;;;;;4998601;28;20450;-81
2021/09/19 11:10:13;;;;;;;6.57;5.97;;;;;;;;;;5010517;28;20526;-81
2021/09/19 11:12:43;;;;;;;6.23;5.20;;;;;;;;;;5004554;28;20448;-82
2021/09/19 11:15:17;;;;;;;7.50;6.80;;;;;;;;;;4996396;28;20398;-82
2021/09/19 11:17:47;;;;;;;6.37;5.70;;;;;;;;;;5001805;28;20449;-83
2021/09/19 11:20:13;;;;;;;7.60;6.90;;;;;;;;;;5003118;28;21268;-81
2021/09/19 11:23:05;;;;;;;7.80;7.00;;;;;;;;;;5002927;28;20979;-81
2021/09/19 11:25:32;;;;;;;7.40;6.80;;;;;;;;;;4962986;29;20444;-82
2021/09/19 11:27:58;;;;;;;8.17;7.57;;;;;;;;;;4964050;28;20457;-82
2021/09/19 11:30:28;;;;;;;8.10;7.50;;;;;;;;;;4959877;29;20455;-81
2021/09/19 11:32:54;;;;;;;7.80;6.60;;;;;;;;;;4965356;29;20946;-82
2021/09/19 11:35:20;;;;;;;9.53;8.70;;;;;;;;;;4958764;29;20412;-82
2021/09/19 11:37:54;;;;;;;10.17;7.90;;;;;;;;;;4961040;28;20453;-81
2021/09/19 11:40:24;;;;;;;9.23;8.33;;;;;;;;;;4963991;28;20486;-83
2021/09/19 11:42:53;;;;;;;8.23;7.63;;;;;;;;;;4940964;29;20439;-83
2021/09/19 11:45:21;;;;;;;7.97;7.27;;;;;;;;;;4961334;29;20454;-83
2021/09/19 11:47:52;;;;;;;9.97;7.73;;;;;;;;;;4960082;29;20434;-82
2021/09/19 11:50:18;;;;;;;7.33;6.73;;;;;;;;;;4962049;28;20426;-80
2021/09/19 11:52:44;;;;;;;7.23;6.50;;;;;;;;;;4959526;28;20459;-83
2021/09/19 11:55:11;;;;;;;7.03;6.43;;;;;;;;;;4959425;28;20486;-81
2021/09/19 11:57:37;;;;;;;7.33;6.80;;;;;;;;;;4963083;28;21067;-81
2021/09/19 12:00:05;;;;;;;6.37;5.80;;;;;;;;;;4964719;29;20407;-82
2021/09/19 12:02:31;;;;;;;7.10;6.40;;;;;;;;;;4987261;28;20453;-82
2021/09/19 12:05:01;;;;;;;6.33;5.90;;;;;;;;;;5018420;28;20440;-82
2021/09/19 12:07:27;;;;;;;8.73;7.20;;;;;;;;;;5018566;28;20499;-81
2021/09/19 12:09:53;;;;;;;8.50;7.67;;;;;;;;;;5004625;28;20409;-82
2021/09/19 12:12:21;;;;;;;7.60;7.00;;;;;;;;;;5004141;28;20444;-81
2021/09/19 12:14:48;;;;;;;5.70;5.20;;;;;;;;;;4999752;28;20397;-80
2021/09/19 12:17:15;;;;;;;6.90;6.23;;;;;;;;;;5003854;28;20545;-81
2021/09/19 12:19:42;;;;;;;5.70;5.20;;;;;;;;;;4997093;28;20467;-82
2021/09/19 12:22:10;;;;;;;6.20;5.57;;;;;;;;;;4999333;28;20863;-82
2021/09/19 12:24:37;;;;;;;6.97;5.43;;;;;;;;;;5019339;28;20424;-82
2021/09/19 12:27:11;;;;;;;5.40;5.00;;;;;;;;;;4999083;28;20452;-81
2021/09/19 12:29:37;;;;;;;5.03;4.63;;;;;;;;;;5002073;28;20426;-82
2021/09/19 12:32:03;;;;;;;5.17;4.67;;;;;;;;;;4995763;28;20522;-81
2021/09/19 12:34:29;;;;;;;5.17;4.70;;;;;;;;;;4993937;28;20433;-82
2021/09/19 12:36:56;;;;;;;5.67;5.17;;;;;;;;;;5001849;28;20470;-81
2021/09/19 12:39:24;;;;;;;5.63;5.07;;;;;;;;;;5020287;28;20446;-81
2021/09/19 12:41:52;;;;;;;5.33;4.90;;;;;;;;;;5010313;28;20408;-81
2021/09/19 12:44:19;;;;;;;6.23;4.63;;;;;;;;;;5000425;28;20513;-82
2021/09/19 12:46:50;;;;;;;7.20;5.23;;;;;;;;;;5001810;28;20440;-81
2021/09/19 12:49:23;;;;;;;4.60;4.30;;;;;;;;;;5016947;28;20427;-84
2021/09/19 12:52:09;;;;;;;4.87;4.40;;;;;;;;;;5011600;28;20431;-81
2021/09/19 12:54:37;;;;;;;4.70;4.30;;;;;;;;;;5000869;28;20408;-81
2021/09/19 12:57:04;;;;;;;4.90;4.50;;;;;;;;;;5004677;28;20515;-80
2021/09/19 12:59:30;;;;;;;4.90;4.57;;;;;;;;;;4999573;28;20442;-83
2021/09/19 13:01:56;;;;;;;4.60;4.20;;;;;;;;;;4999691;28;20458;-84
2021/09/19 13:04:22;;;;;;;4.20;3.83;;;;;;;;;;5017977;28;20454;-85
2021/09/19 13:06:49;;;;;;;5.27;4.80;;;;;;;;;;5002712;28;20821;-82
2021/09/19 13:09:15;;;;;;;4.37;4.07;;;;;;;;;;4998926;28;20414;-81
2021/09/19 13:11:42;;;;;;;3.90;3.60;;;;;;;;;;5003152;28;20436;-82
2021/09/19 13:14:08;;;;;;;4.67;4.27;;;;;;;;;;4997288;28;20446;-79
2021/09/19 13:16:34;;;;;;;3.90;3.60;;;;;;;;;;5000999;28;20430;-85
2021/09/19 13:19:01;;;;;;;4.07;3.77;;;;;;;;;;5000758;28;20437;-80
2021/09/19 13:21:28;;;;;;;3.37;3.10;;;;;;;;;;5018592;28;20539;-80
2021/09/19 13:23:54;;;;;;;3.97;3.67;;;;;;;;;;4995765;28;20544;-81
2021/09/19 13:26:20;;;;;;;3.20;3.00;;;;;;;;;;5000960;28;20430;-80
2021/09/19 13:28:46;;;;;;;4.03;3.73;;;;;;;;;;5017536;28;20445;-79
2021/09/19 13:31:13;;;;;;;4.50;4.20;;;;;;;;;;5015432;28;20433;-81
2021/09/19 13:33:39;;;;;;;4.80;3.70;;;;;;;;;;5017577;28;20434;-81
2021/09/19 13:36:05;;;;;;;5.13;3.77;;;;;;;;;;5003023;28;20450;-81
2021/09/19 13:38:32;;;;;;;3.37;3.17;;;;;;;;;;5000399;28;20437;-80
2021/09/19 13:40:58;;;;;;;3.53;3.23;;;;;;;;;;5000991;28;20906;-80
2021/09/19 13:43:25;;;;;;;3.63;3.33;;;;;;;;;;5000388;28;20973;-81
2021/09/19 13:45:51;;;;;;;3.53;3.33;;;;;;;;;;4996319;28;20533;-81
2021/09/19 13:48:17;;;;;;;3.70;3.40;;;;;;;;;;5004637;28;20410;-81
2021/09/19 13:50:43;;;;;;;4.93;3.13;;;;;;;;;;5000588;28;20923;-83
2021/09/19 13:53:10;;;;;;;3.40;3.20;;;;;;;;;;4993323;28;20454;-79
2021/09/19 13:55:36;;;;;;;3.50;3.23;;;;;;;;;;5000325;28;20431;-79
2021/09/19 13:58:03;;;;;;;4.63;3.70;;;;;;;;;;4987202;28;20439;-78
2021/09/19 14:00:31;;;;;;;4.03;3.73;;;;;;;;;;5003559;28;20422;-84
2021/09/19 14:02:57;;;;;;;3.30;3.10;;;;;;;;;;4996832;28;20468;-80
2021/09/19 14:05:23;;;;;;;2.60;2.40;;;;;;;;;;4993751;28;20439;-80
2021/09/19 14:07:49;;;;;;;3.30;3.10;;;;;;;;;;5000162;28;20870;-83
2021/09/19 14:10:16;;;;;;;3.63;3.37;;;;;;;;;;5000584;28;20426;-81
2021/09/19 14:12:42;;;;;;;3.57;3.27;;;;;;;;;;5001502;28;21505;-82
2021/09/19 14:15:09;;;;;;;3.57;3.30;;;;;;;;;;5002984;28;20684;-84
2021/09/19 14:17:37;;;;;;;4.40;3.50;;;;;;;;;;4993742;28;20435;-80
2021/09/19 14:20:04;;;;;;;3.30;3.10;;;;;;;;;;5000858;28;20429;-79
2021/09/19 14:22:30;;;;;;;3.50;3.20;;;;;;;;;;4989524;28;20488;-79
2021/09/19 14:24:56;;;;;;;3.10;2.90;;;;;;;;;;5015296;28;20433;-80
2021/09/19 14:27:23;;;;;;;3.50;3.20;;;;;;;;;;5004237;28;20424;-79
2021/09/19 14:29:49;;;;;;;3.70;3.50;;;;;;;;;;4997248;28;20440;-81
2021/09/19 14:32:15;;;;;;;3.77;3.47;;;;;;;;;;5000952;28;20605;-81
2021/09/19 14:34:41;;;;;;;3.10;2.90;;;;;;;;;;5000425;28;20470;-78
2021/09/19 14:37:08;;;;;;;3.40;3.20;;;;;;;;;;4999955;28;20440;-78
2021/09/19 14:39:34;;;;;;;2.80;2.40;;;;;;;;;;5017782;28;20429;-77
2021/09/19 14:42:00;;;;;;;3.20;3.00;;;;;;;;;;5003540;28;20417;-78